sensor_id;sensor_type;location;lat;lon;timestamp;P1;durP1;ratioP1;P2;durP2;ratioP2
12861;SDS011;6499;66.348;14.134;2023-05-07T00:01:58;1.70;;;1.00;;
12861;SDS011;6499;66.348;14.134;2023-05-07T00:04:25;2.33;;;0.80;;
12861;SDS011;6499;66.348;14.134;2023-05-07T00:06:51;1.03;;;0.70;;
12861;SDS011;6499;66.348;14.134;2023-05-07T00:09:18;2.83;;;0.83;;
12861;SDS011;6499;66.348;14.134;2023-05-07T00:11:44;4.53;;;1.27;;
12861;SDS011;6499;66.348;14.134;2023-05-07T00:14:11;3.17;;;1.17;;
12861;SDS011;6499;66.348;14.134;2023-05-07T00:16:39;1.00;;;0.80;;
12861;SDS011;6499;66.348;14.134;2023-05-07T00:19:05;1.63;;;0.80;;
12861;SDS011;6499;66.348;14.134;2023-05-07T00:21:32;2.00;;;1.00;;
12861;SDS011;6499;66.348;14.134;2023-05-07T00:23:58;2.40;;;0.87;;
12861;SDS011;6499;66.348;14.134;2023-05-07T00:26:25;0.90;;;0.70;;
12861;SDS011;6499;66.348;14.134;2023-05-07T00:28:52;1.27;;;0.97;;
12861;SDS011;6499;66.348;14.134;2023-05-07T00:31:18;1.20;;;0.90;;
12861;SDS011;6499;66.348;14.134;2023-05-07T00:36:16;1.00;;;0.90;;
12861;SDS011;6499;66.348;14.134;2023-05-07T00:38:45;0.97;;;0.70;;
12861;SDS011;6499;66.348;14.134;2023-05-07T00:41:11;1.13;;;0.90;;
12861;SDS011;6499;66.348;14.134;2023-05-07T00:43:38;1.00;;;0.90;;
12861;SDS011;6499;66.348;14.134;2023-05-07T00:46:04;0.90;;;0.90;;
12861;SDS011;6499;66.348;14.134;2023-05-07T00:48:31;0.70;;;0.67;;
12861;SDS011;6499;66.348;14.134;2023-05-07T00:50:58;1.57;;;1.07;;
12861;SDS011;6499;66.348;14.134;2023-05-07T00:53:26;1.27;;;0.90;;
12861;SDS011;6499;66.348;14.134;2023-05-07T00:55:53;3.23;;;1.10;;
12861;SDS011;6499;66.348;14.134;2023-05-07T00:58:19;1.07;;;0.80;;
12861;SDS011;6499;66.348;14.134;2023-05-07T01:00:47;1.50;;;0.90;;
12861;SDS011;6499;66.348;14.134;2023-05-07T01:03:14;0.80;;;0.80;;
12861;SDS011;6499;66.348;14.134;2023-05-07T01:05:41;1.77;;;1.43;;
12861;SDS011;6499;66.348;14.134;2023-05-07T01:08:08;1.27;;;1.00;;
12861;SDS011;6499;66.348;14.134;2023-05-07T01:10:37;0.93;;;0.90;;
12861;SDS011;6499;66.348;14.134;2023-05-07T01:13:07;1.10;;;0.93;;
12861;SDS011;6499;66.348;14.134;2023-05-07T01:15:35;1.80;;;1.00;;
12861;SDS011;6499;66.348;14.134;2023-05-07T01:18:01;1.13;;;0.90;;
12861;SDS011;6499;66.348;14.134;2023-05-07T01:20:28;1.43;;;0.73;;
12861;SDS011;6499;66.348;14.134;2023-05-07T01:22:56;0.80;;;0.80;;
12861;SDS011;6499;66.348;14.134;2023-05-07T01:25:23;0.67;;;0.60;;
12861;SDS011;6499;66.348;14.134;2023-05-07T01:27:50;1.00;;;0.90;;
12861;SDS011;6499;66.348;14.134;2023-05-07T01:30:17;1.23;;;0.90;;
12861;SDS011;6499;66.348;14.134;2023-05-07T01:32:53;1.00;;;0.90;;
12861;SDS011;6499;66.348;14.134;2023-05-07T01:35:25;0.80;;;0.80;;
12861;SDS011;6499;66.348;14.134;2023-05-07T01:37:53;1.30;;;0.87;;
12861;SDS011;6499;66.348;14.134;2023-05-07T01:40:22;1.73;;;0.90;;
12861;SDS011;6499;66.348;14.134;2023-05-07T01:42:48;1.33;;;1.03;;
12861;SDS011;6499;66.348;14.134;2023-05-07T01:45:15;1.70;;;0.97;;
12861;SDS011;6499;66.348;14.134;2023-05-07T01:47:42;2.17;;;0.90;;
12861;SDS011;6499;66.348;14.134;2023-05-07T01:50:09;2.13;;;0.90;;
12861;SDS011;6499;66.348;14.134;2023-05-07T01:52:36;2.30;;;1.00;;
12861;SDS011;6499;66.348;14.134;2023-05-07T01:55:04;2.07;;;0.80;;
12861;SDS011;6499;66.348;14.134;2023-05-07T01:57:32;3.67;;;1.20;;
12861;SDS011;6499;66.348;14.134;2023-05-07T01:59:58;1.37;;;1.10;;
12861;SDS011;6499;66.348;14.134;2023-05-07T02:02:25;0.97;;;0.93;;
12861;SDS011;6499;66.348;14.134;2023-05-07T02:04:52;2.60;;;0.83;;
12861;SDS011;6499;66.348;14.134;2023-05-07T02:07:18;0.70;;;0.70;;
12861;SDS011;6499;66.348;14.134;2023-05-07T02:09:45;1.53;;;0.90;;
12861;SDS011;6499;66.348;14.134;2023-05-07T02:12:11;1.00;;;0.90;;
12861;SDS011;6499;66.348;14.134;2023-05-07T02:14:39;3.10;;;1.20;;
12861;SDS011;6499;66.348;14.134;2023-05-07T02:17:07;1.00;;;0.80;;
12861;SDS011;6499;66.348;14.134;2023-05-07T02:19:34;2.43;;;0.97;;
12861;SDS011;6499;66.348;14.134;2023-05-07T02:22:00;1.93;;;1.03;;
12861;SDS011;6499;66.348;14.134;2023-05-07T02:24:27;3.00;;;0.90;;
12861;SDS011;6499;66.348;14.134;2023-05-07T02:26:53;2.00;;;0.90;;
12861;SDS011;6499;66.348;14.134;2023-05-07T02:29:20;2.00;;;1.07;;
12861;SDS011;6499;66.348;14.134;2023-05-07T02:31:48;2.17;;;1.03;;
12861;SDS011;6499;66.348;14.134;2023-05-07T02:34:15;3.17;;;1.27;;
12861;SDS011;6499;66.348;14.134;2023-05-07T02:36:42;9.97;;;2.30;;
12861;SDS011;6499;66.348;14.134;2023-05-07T02:39:09;2.63;;;1.00;;
12861;SDS011;6499;66.348;14.134;2023-05-07T02:41:36;2.43;;;1.20;;
12861;SDS011;6499;66.348;14.134;2023-05-07T02:44:03;3.40;;;1.10;;
12861;SDS011;6499;66.348;14.134;2023-05-07T02:46:29;3.63;;;1.23;;
12861;SDS011;6499;66.348;14.134;2023-05-07T02:48:57;1.20;;;0.90;;
12861;SDS011;6499;66.348;14.134;2023-05-07T02:51:25;5.63;;;1.33;;
12861;SDS011;6499;66.348;14.134;2023-05-07T02:53:52;2.03;;;1.03;;
12861;SDS011;6499;66.348;14.134;2023-05-07T02:56:19;1.20;;;0.83;;
12861;SDS011;6499;66.348;14.134;2023-05-07T02:58:46;1.70;;;0.90;;
12861;SDS011;6499;66.348;14.134;2023-05-07T03:01:13;1.77;;;0.93;;
12861;SDS011;6499;66.348;14.134;2023-05-07T03:03:40;2.73;;;0.83;;
12861;SDS011;6499;66.348;14.134;2023-05-07T03:06:08;0.80;;;0.80;;
12861;SDS011;6499;66.348;14.134;2023-05-07T03:08:34;2.87;;;1.20;;
12861;SDS011;6499;66.348;14.134;2023-05-07T03:11:01;4.37;;;1.27;;
12861;SDS011;6499;66.348;14.134;2023-05-07T03:13:28;1.37;;;0.90;;
12861;SDS011;6499;66.348;14.134;2023-05-07T03:15:55;0.80;;;0.80;;
12861;SDS011;6499;66.348;14.134;2023-05-07T03:18:22;1.63;;;0.80;;
12861;SDS011;6499;66.348;14.134;2023-05-07T03:20:48;0.83;;;0.70;;
12861;SDS011;6499;66.348;14.134;2023-05-07T03:23:16;1.20;;;0.87;;
12861;SDS011;6499;66.348;14.134;2023-05-07T03:25:43;1.43;;;1.10;;
12861;SDS011;6499;66.348;14.134;2023-05-07T03:28:09;0.83;;;0.70;;
12861;SDS011;6499;66.348;14.134;2023-05-07T03:30:36;1.07;;;0.90;;
12861;SDS011;6499;66.348;14.134;2023-05-07T03:33:03;4.83;;;1.20;;
12861;SDS011;6499;66.348;14.134;2023-05-07T03:35:29;1.97;;;0.80;;
12861;SDS011;6499;66.348;14.134;2023-05-07T03:37:56;1.80;;;0.93;;
12861;SDS011;6499;66.348;14.134;2023-05-07T03:40:24;2.57;;;0.90;;
12861;SDS011;6499;66.348;14.134;2023-05-07T03:42:50;2.03;;;0.90;;
12861;SDS011;6499;66.348;14.134;2023-05-07T03:45:17;1.73;;;0.90;;
12861;SDS011;6499;66.348;14.134;2023-05-07T03:47:44;1.80;;;0.87;;
12861;SDS011;6499;66.348;14.134;2023-05-07T03:50:11;1.10;;;0.67;;
12861;SDS011;6499;66.348;14.134;2023-05-07T03:52:37;1.43;;;0.90;;
12861;SDS011;6499;66.348;14.134;2023-05-07T03:55:04;1.83;;;0.80;;
12861;SDS011;6499;66.348;14.134;2023-05-07T03:57:33;2.53;;;1.07;;
12861;SDS011;6499;66.348;14.134;2023-05-07T04:00:00;2.17;;;0.87;;
12861;SDS011;6499;66.348;14.134;2023-05-07T04:02:26;1.20;;;1.00;;
12861;SDS011;6499;66.348;14.134;2023-05-07T04:04:53;2.23;;;0.87;;
12861;SDS011;6499;66.348;14.134;2023-05-07T04:07:19;0.90;;;0.80;;
12861;SDS011;6499;66.348;14.134;2023-05-07T04:09:46;1.33;;;0.80;;
12861;SDS011;6499;66.348;14.134;2023-05-07T04:12:12;1.37;;;0.80;;
12861;SDS011;6499;66.348;14.134;2023-05-07T04:14:40;1.30;;;1.00;;
12861;SDS011;6499;66.348;14.134;2023-05-07T04:17:07;0.93;;;0.83;;
12861;SDS011;6499;66.348;14.134;2023-05-07T04:19:34;1.20;;;1.03;;
12861;SDS011;6499;66.348;14.134;2023-05-07T04:22:01;2.40;;;0.90;;
12861;SDS011;6499;66.348;14.134;2023-05-07T04:24:30;1.00;;;0.80;;
12861;SDS011;6499;66.348;14.134;2023-05-07T04:26:57;1.57;;;0.90;;
12861;SDS011;6499;66.348;14.134;2023-05-07T04:29:24;2.00;;;0.90;;
12861;SDS011;6499;66.348;14.134;2023-05-07T04:31:52;1.00;;;0.77;;
12861;SDS011;6499;66.348;14.134;2023-05-07T04:34:20;0.80;;;0.80;;
12861;SDS011;6499;66.348;14.134;2023-05-07T04:36:47;1.53;;;0.90;;
12861;SDS011;6499;66.348;14.134;2023-05-07T04:39:14;0.70;;;0.70;;
12861;SDS011;6499;66.348;14.134;2023-05-07T04:41:41;1.23;;;0.77;;
12861;SDS011;6499;66.348;14.134;2023-05-07T04:44:07;1.10;;;0.90;;
12861;SDS011;6499;66.348;14.134;2023-05-07T04:46:34;0.93;;;0.73;;
12861;SDS011;6499;66.348;14.134;2023-05-07T04:49:02;1.17;;;0.97;;
12861;SDS011;6499;66.348;14.134;2023-05-07T04:51:29;1.87;;;1.23;;
12861;SDS011;6499;66.348;14.134;2023-05-07T04:53:57;0.90;;;0.73;;
12861;SDS011;6499;66.348;14.134;2023-05-07T04:56:24;1.33;;;0.80;;
12861;SDS011;6499;66.348;14.134;2023-05-07T04:58:53;2.40;;;0.90;;
12861;SDS011;6499;66.348;14.134;2023-05-07T05:01:20;1.13;;;0.80;;
12861;SDS011;6499;66.348;14.134;2023-05-07T05:03:46;0.90;;;0.80;;
12861;SDS011;6499;66.348;14.134;2023-05-07T05:06:15;0.70;;;0.70;;
12861;SDS011;6499;66.348;14.134;2023-05-07T05:08:41;1.27;;;1.10;;
12861;SDS011;6499;66.348;14.134;2023-05-07T05:11:08;1.47;;;0.93;;
12861;SDS011;6499;66.348;14.134;2023-05-07T05:13:35;0.90;;;0.80;;
12861;SDS011;6499;66.348;14.134;2023-05-07T05:16:01;0.73;;;0.70;;
12861;SDS011;6499;66.348;14.134;2023-05-07T05:18:28;1.10;;;0.90;;
12861;SDS011;6499;66.348;14.134;2023-05-07T05:20:54;1.00;;;0.80;;
12861;SDS011;6499;66.348;14.134;2023-05-07T05:23:23;1.67;;;0.97;;
12861;SDS011;6499;66.348;14.134;2023-05-07T05:25:49;1.20;;;0.77;;
12861;SDS011;6499;66.348;14.134;2023-05-07T05:28:16;1.23;;;0.80;;
12861;SDS011;6499;66.348;14.134;2023-05-07T05:30:42;0.93;;;0.80;;
12861;SDS011;6499;66.348;14.134;2023-05-07T05:33:09;1.10;;;0.90;;
12861;SDS011;6499;66.348;14.134;2023-05-07T05:35:35;0.87;;;0.83;;
12861;SDS011;6499;66.348;14.134;2023-05-07T05:38:02;2.60;;;0.70;;
12861;SDS011;6499;66.348;14.134;2023-05-07T05:40:30;1.37;;;0.90;;
12861;SDS011;6499;66.348;14.134;2023-05-07T05:42:57;3.03;;;0.90;;
12861;SDS011;6499;66.348;14.134;2023-05-07T05:45:23;0.80;;;0.70;;
12861;SDS011;6499;66.348;14.134;2023-05-07T05:47:50;1.07;;;0.90;;
12861;SDS011;6499;66.348;14.134;2023-05-07T05:50:16;0.97;;;0.70;;
12861;SDS011;6499;66.348;14.134;2023-05-07T05:52:43;2.40;;;0.90;;
12861;SDS011;6499;66.348;14.134;2023-05-07T05:55:10;2.30;;;0.90;;
12861;SDS011;6499;66.348;14.134;2023-05-07T05:57:38;2.43;;;1.00;;
12861;SDS011;6499;66.348;14.134;2023-05-07T06:00:05;1.27;;;0.80;;
12861;SDS011;6499;66.348;14.134;2023-05-07T06:02:31;1.27;;;0.97;;
12861;SDS011;6499;66.348;14.134;2023-05-07T06:04:58;1.40;;;0.90;;
12861;SDS011;6499;66.348;14.134;2023-05-07T06:07:25;3.80;;;1.30;;
12861;SDS011;6499;66.348;14.134;2023-05-07T06:09:51;1.07;;;0.70;;
12861;SDS011;6499;66.348;14.134;2023-05-07T06:12:18;1.00;;;0.80;;
12861;SDS011;6499;66.348;14.134;2023-05-07T06:14:46;2.43;;;0.90;;
12861;SDS011;6499;66.348;14.134;2023-05-07T06:17:12;1.20;;;0.73;;
12861;SDS011;6499;66.348;14.134;2023-05-07T06:19:39;1.40;;;0.70;;
12861;SDS011;6499;66.348;14.134;2023-05-07T06:22:05;0.97;;;0.73;;
12861;SDS011;6499;66.348;14.134;2023-05-07T06:24:32;1.30;;;0.90;;
12861;SDS011;6499;66.348;14.134;2023-05-07T06:26:58;1.57;;;0.90;;
12861;SDS011;6499;66.348;14.134;2023-05-07T06:29:25;0.90;;;0.57;;
12861;SDS011;6499;66.348;14.134;2023-05-07T06:31:53;0.60;;;0.60;;
12861;SDS011;6499;66.348;14.134;2023-05-07T06:34:20;2.10;;;0.80;;
12861;SDS011;6499;66.348;14.134;2023-05-07T06:36:46;0.87;;;0.70;;
12861;SDS011;6499;66.348;14.134;2023-05-07T06:39:13;1.43;;;0.83;;
12861;SDS011;6499;66.348;14.134;2023-05-07T06:41:39;1.10;;;1.00;;
12861;SDS011;6499;66.348;14.134;2023-05-07T06:44:06;1.47;;;1.00;;
12861;SDS011;6499;66.348;14.134;2023-05-07T06:46:32;1.63;;;0.80;;
12861;SDS011;6499;66.348;14.134;2023-05-07T06:49:00;1.50;;;0.83;;
12861;SDS011;6499;66.348;14.134;2023-05-07T06:51:27;2.40;;;0.80;;
12861;SDS011;6499;66.348;14.134;2023-05-07T06:53:54;1.30;;;0.60;;
12861;SDS011;6499;66.348;14.134;2023-05-07T06:56:20;1.00;;;0.70;;
12861;SDS011;6499;66.348;14.134;2023-05-07T06:58:47;1.60;;;0.80;;
12861;SDS011;6499;66.348;14.134;2023-05-07T07:01:14;1.03;;;0.70;;
12861;SDS011;6499;66.348;14.134;2023-05-07T07:03:41;1.27;;;0.90;;
12861;SDS011;6499;66.348;14.134;2023-05-07T07:06:09;0.77;;;0.77;;
12861;SDS011;6499;66.348;14.134;2023-05-07T07:08:35;2.53;;;0.97;;
12861;SDS011;6499;66.348;14.134;2023-05-07T07:11:03;0.63;;;0.63;;
12861;SDS011;6499;66.348;14.134;2023-05-07T07:13:30;0.80;;;0.70;;
12861;SDS011;6499;66.348;14.134;2023-05-07T07:15:58;1.37;;;0.90;;
12861;SDS011;6499;66.348;14.134;2023-05-07T07:18:24;2.70;;;1.10;;
12861;SDS011;6499;66.348;14.134;2023-05-07T07:20:51;0.83;;;0.83;;
12861;SDS011;6499;66.348;14.134;2023-05-07T07:23:19;1.73;;;0.87;;
12861;SDS011;6499;66.348;14.134;2023-05-07T07:25:45;1.07;;;0.90;;
12861;SDS011;6499;66.348;14.134;2023-05-07T07:28:12;1.20;;;0.90;;
12861;SDS011;6499;66.348;14.134;2023-05-07T07:30:39;0.80;;;0.80;;
12861;SDS011;6499;66.348;14.134;2023-05-07T07:33:05;3.50;;;0.90;;
12861;SDS011;6499;66.348;14.134;2023-05-07T07:35:32;0.70;;;0.70;;
12861;SDS011;6499;66.348;14.134;2023-05-07T07:37:58;0.90;;;0.80;;
12861;SDS011;6499;66.348;14.134;2023-05-07T07:40:26;23.83;;;3.43;;
12861;SDS011;6499;66.348;14.134;2023-05-07T07:42:53;2.17;;;0.93;;
12861;SDS011;6499;66.348;14.134;2023-05-07T07:45:20;1.57;;;0.83;;
12861;SDS011;6499;66.348;14.134;2023-05-07T07:47:47;0.97;;;0.90;;
12861;SDS011;6499;66.348;14.134;2023-05-07T07:50:13;0.70;;;0.70;;
12861;SDS011;6499;66.348;14.134;2023-05-07T07:52:40;2.87;;;1.00;;
12861;SDS011;6499;66.348;14.134;2023-05-07T07:55:07;0.90;;;0.90;;
12861;SDS011;6499;66.348;14.134;2023-05-07T07:57:35;0.97;;;0.97;;
12861;SDS011;6499;66.348;14.134;2023-05-07T08:00:02;1.17;;;0.80;;
12861;SDS011;6499;66.348;14.134;2023-05-07T08:02:29;1.80;;;0.90;;
12861;SDS011;6499;66.348;14.134;2023-05-07T08:04:56;1.57;;;0.80;;
12861;SDS011;6499;66.348;14.134;2023-05-07T08:07:22;1.80;;;0.90;;
12861;SDS011;6499;66.348;14.134;2023-05-07T08:09:49;1.70;;;0.97;;
12861;SDS011;6499;66.348;14.134;2023-05-07T08:12:15;1.90;;;0.90;;
12861;SDS011;6499;66.348;14.134;2023-05-07T08:14:43;1.57;;;0.80;;
12861;SDS011;6499;66.348;14.134;2023-05-07T08:17:10;1.73;;;1.00;;
12861;SDS011;6499;66.348;14.134;2023-05-07T08:19:36;1.57;;;0.97;;
12861;SDS011;6499;66.348;14.134;2023-05-07T08:22:03;2.20;;;1.10;;
12861;SDS011;6499;66.348;14.134;2023-05-07T08:24:30;3.00;;;1.20;;
12861;SDS011;6499;66.348;14.134;2023-05-07T08:26:57;2.30;;;1.60;;
12861;SDS011;6499;66.348;14.134;2023-05-07T08:29:23;2.57;;;1.40;;
12861;SDS011;6499;66.348;14.134;2023-05-07T08:31:51;1.93;;;1.60;;
12861;SDS011;6499;66.348;14.134;2023-05-07T08:34:18;4.60;;;2.87;;
12861;SDS011;6499;66.348;14.134;2023-05-07T08:36:44;5.17;;;3.50;;
12861;SDS011;6499;66.348;14.134;2023-05-07T08:39:13;5.70;;;3.70;;
12861;SDS011;6499;66.348;14.134;2023-05-07T08:41:40;17.77;;;4.27;;
12861;SDS011;6499;66.348;14.134;2023-05-07T08:44:06;4.20;;;2.80;;
12861;SDS011;6499;66.348;14.134;2023-05-07T08:46:37;5.73;;;2.83;;
12861;SDS011;6499;66.348;14.134;2023-05-07T08:49:05;10.57;;;3.80;;
12861;SDS011;6499;66.348;14.134;2023-05-07T08:51:32;6.33;;;2.60;;
12861;SDS011;6499;66.348;14.134;2023-05-07T08:53:58;3.77;;;2.30;;
12861;SDS011;6499;66.348;14.134;2023-05-07T08:56:25;2.77;;;2.37;;
12861;SDS011;6499;66.348;14.134;2023-05-07T08:58:52;9.13;;;3.50;;
12861;SDS011;6499;66.348;14.134;2023-05-07T09:01:21;4.40;;;2.07;;
12861;SDS011;6499;66.348;14.134;2023-05-07T09:03:49;5.40;;;2.20;;
12861;SDS011;6499;66.348;14.134;2023-05-07T09:06:17;2.93;;;1.87;;
12861;SDS011;6499;66.348;14.134;2023-05-07T09:08:44;2.80;;;1.40;;
12861;SDS011;6499;66.348;14.134;2023-05-07T09:11:15;2.20;;;1.50;;
12861;SDS011;6499;66.348;14.134;2023-05-07T09:13:42;3.03;;;1.20;;
12861;SDS011;6499;66.348;14.134;2023-05-07T09:16:12;2.10;;;1.23;;
12861;SDS011;6499;66.348;14.134;2023-05-07T09:18:41;2.07;;;1.00;;
12861;SDS011;6499;66.348;14.134;2023-05-07T09:21:09;1.27;;;1.17;;
12861;SDS011;6499;66.348;14.134;2023-05-07T09:23:37;3.50;;;1.00;;
12861;SDS011;6499;66.348;14.134;2023-05-07T09:26:04;3.77;;;1.23;;
12861;SDS011;6499;66.348;14.134;2023-05-07T09:28:33;1.53;;;0.90;;
12861;SDS011;6499;66.348;14.134;2023-05-07T09:31:00;10.83;;;2.17;;
12861;SDS011;6499;66.348;14.134;2023-05-07T09:33:27;1.40;;;1.00;;
12861;SDS011;6499;66.348;14.134;2023-05-07T09:35:53;1.97;;;1.10;;
12861;SDS011;6499;66.348;14.134;2023-05-07T09:38:20;2.97;;;1.43;;
12861;SDS011;6499;66.348;14.134;2023-05-07T09:40:52;3.60;;;1.27;;
12861;SDS011;6499;66.348;14.134;2023-05-07T09:43:27;2.17;;;1.20;;
12861;SDS011;6499;66.348;14.134;2023-05-07T09:45:57;2.00;;;1.30;;
12861;SDS011;6499;66.348;14.134;2023-05-07T09:48:24;2.20;;;1.27;;
12861;SDS011;6499;66.348;14.134;2023-05-07T09:50:51;1.80;;;1.40;;
12861;SDS011;6499;66.348;14.134;2023-05-07T09:53:21;2.40;;;1.33;;
12861;SDS011;6499;66.348;14.134;2023-05-07T09:55:50;1.80;;;1.50;;
12861;SDS011;6499;66.348;14.134;2023-05-07T09:58:17;1.80;;;1.27;;
12861;SDS011;6499;66.348;14.134;2023-05-07T10:00:44;1.90;;;1.33;;
12861;SDS011;6499;66.348;14.134;2023-05-07T10:03:11;2.67;;;1.30;;
12861;SDS011;6499;66.348;14.134;2023-05-07T10:05:40;2.17;;;1.50;;
12861;SDS011;6499;66.348;14.134;2023-05-07T10:08:06;1.73;;;1.20;;
12861;SDS011;6499;66.348;14.134;2023-05-07T10:10:34;9.30;;;1.37;;
12861;SDS011;6499;66.348;14.134;2023-05-07T10:13:02;5.47;;;1.33;;
12861;SDS011;6499;66.348;14.134;2023-05-07T10:15:30;13.17;;;2.90;;
12861;SDS011;6499;66.348;14.134;2023-05-07T10:17:57;3.50;;;1.00;;
12861;SDS011;6499;66.348;14.134;2023-05-07T10:20:24;8.27;;;1.63;;
12861;SDS011;6499;66.348;14.134;2023-05-07T10:22:51;4.53;;;1.00;;
12861;SDS011;6499;66.348;14.134;2023-05-07T10:25:20;1.53;;;0.90;;
12861;SDS011;6499;66.348;14.134;2023-05-07T10:27:49;2.80;;;1.17;;
12861;SDS011;6499;66.348;14.134;2023-05-07T10:30:20;0.90;;;0.90;;
12861;SDS011;6499;66.348;14.134;2023-05-07T10:32:49;1.67;;;1.20;;
12861;SDS011;6499;66.348;14.134;2023-05-07T10:35:17;2.73;;;0.90;;
12861;SDS011;6499;66.348;14.134;2023-05-07T10:37:45;2.00;;;1.23;;
12861;SDS011;6499;66.348;14.134;2023-05-07T10:40:12;2.03;;;1.10;;
12861;SDS011;6499;66.348;14.134;2023-05-07T10:42:52;1.60;;;1.10;;
12861;SDS011;6499;66.348;14.134;2023-05-07T10:45:21;2.23;;;1.33;;
12861;SDS011;6499;66.348;14.134;2023-05-07T10:48:06;2.90;;;1.20;;
12861;SDS011;6499;66.348;14.134;2023-05-07T10:50:33;1.87;;;1.00;;
12861;SDS011;6499;66.348;14.134;2023-05-07T10:55:45;16.07;;;2.27;;
12861;SDS011;6499;66.348;14.134;2023-05-07T10:58:22;1.77;;;1.10;;
12861;SDS011;6499;66.348;14.134;2023-05-07T11:00:55;1.77;;;1.00;;
12861;SDS011;6499;66.348;14.134;2023-05-07T11:03:22;1.87;;;1.23;;
12861;SDS011;6499;66.348;14.134;2023-05-07T11:06:07;2.70;;;1.20;;
12861;SDS011;6499;66.348;14.134;2023-05-07T11:11:16;2.10;;;1.00;;
12861;SDS011;6499;66.348;14.134;2023-05-07T11:13:43;2.93;;;1.20;;
12861;SDS011;6499;66.348;14.134;2023-05-07T11:16:20;2.60;;;1.10;;
12861;SDS011;6499;66.348;14.134;2023-05-07T11:18:48;1.23;;;0.93;;
12861;SDS011;6499;66.348;14.134;2023-05-07T11:24:00;1.27;;;0.90;;
12861;SDS011;6499;66.348;14.134;2023-05-07T11:26:27;2.07;;;1.20;;
12861;SDS011;6499;66.348;14.134;2023-05-07T11:28:55;2.43;;;1.03;;
12861;SDS011;6499;66.348;14.134;2023-05-07T11:31:24;2.57;;;1.30;;
12861;SDS011;6499;66.348;14.134;2023-05-07T11:33:51;5.90;;;1.10;;
12861;SDS011;6499;66.348;14.134;2023-05-07T11:36:18;2.43;;;1.00;;
12861;SDS011;6499;66.348;14.134;2023-05-07T11:38:45;1.83;;;1.07;;
12861;SDS011;6499;66.348;14.134;2023-05-07T11:41:12;1.87;;;1.00;;
12861;SDS011;6499;66.348;14.134;2023-05-07T11:43:40;6.87;;;1.63;;
12861;SDS011;6499;66.348;14.134;2023-05-07T11:46:19;4.87;;;1.20;;
12861;SDS011;6499;66.348;14.134;2023-05-07T11:48:47;2.30;;;1.43;;
12861;SDS011;6499;66.348;14.134;2023-05-07T11:51:16;2.97;;;1.50;;
12861;SDS011;6499;66.348;14.134;2023-05-07T11:53:44;1.80;;;1.20;;
12861;SDS011;6499;66.348;14.134;2023-05-07T11:56:12;3.40;;;1.10;;
12861;SDS011;6499;66.348;14.134;2023-05-07T11:58:39;1.80;;;1.00;;
12861;SDS011;6499;66.348;14.134;2023-05-07T12:01:07;7.90;;;1.47;;
12861;SDS011;6499;66.348;14.134;2023-05-07T12:03:34;5.20;;;1.53;;
12861;SDS011;6499;66.348;14.134;2023-05-07T12:06:02;2.17;;;1.00;;
12861;SDS011;6499;66.348;14.134;2023-05-07T12:08:31;1.10;;;1.00;;
12861;SDS011;6499;66.348;14.134;2023-05-07T12:10:58;1.27;;;0.87;;
12861;SDS011;6499;66.348;14.134;2023-05-07T12:13:25;1.80;;;1.23;;
12861;SDS011;6499;66.348;14.134;2023-05-07T12:15:52;1.33;;;1.10;;
12861;SDS011;6499;66.348;14.134;2023-05-07T12:18:18;1.77;;;1.17;;
12861;SDS011;6499;66.348;14.134;2023-05-07T12:20:46;1.50;;;1.37;;
12861;SDS011;6499;66.348;14.134;2023-05-07T12:23:13;1.17;;;0.90;;
12861;SDS011;6499;66.348;14.134;2023-05-07T12:25:41;2.10;;;1.23;;
12861;SDS011;6499;66.348;14.134;2023-05-07T12:28:12;2.70;;;1.00;;
12861;SDS011;6499;66.348;14.134;2023-05-07T12:30:39;2.20;;;1.17;;
12861;SDS011;6499;66.348;14.134;2023-05-07T12:33:06;5.00;;;1.33;;
12861;SDS011;6499;66.348;14.134;2023-05-07T12:35:35;5.07;;;1.60;;
12861;SDS011;6499;66.348;14.134;2023-05-07T12:38:06;2.03;;;1.10;;
12861;SDS011;6499;66.348;14.134;2023-05-07T12:40:38;3.90;;;1.37;;
12861;SDS011;6499;66.348;14.134;2023-05-07T12:43:05;3.13;;;1.30;;
12861;SDS011;6499;66.348;14.134;2023-05-07T12:45:35;4.27;;;1.23;;
12861;SDS011;6499;66.348;14.134;2023-05-07T12:48:02;1.10;;;1.00;;
12861;SDS011;6499;66.348;14.134;2023-05-07T12:50:31;1.77;;;1.00;;
12861;SDS011;6499;66.348;14.134;2023-05-07T12:52:57;2.23;;;1.17;;
12861;SDS011;6499;66.348;14.134;2023-05-07T12:55:24;4.87;;;1.60;;
12861;SDS011;6499;66.348;14.134;2023-05-07T12:57:52;2.00;;;1.30;;
12861;SDS011;6499;66.348;14.134;2023-05-07T13:00:31;3.93;;;1.20;;
12861;SDS011;6499;66.348;14.134;2023-05-07T13:02:58;0.97;;;0.90;;
12861;SDS011;6499;66.348;14.134;2023-05-07T13:05:25;9.73;;;2.00;;
12861;SDS011;6499;66.348;14.134;2023-05-07T13:07:54;5.87;;;2.13;;
12861;SDS011;6499;66.348;14.134;2023-05-07T13:10:21;3.30;;;1.03;;
12861;SDS011;6499;66.348;14.134;2023-05-07T13:12:48;3.03;;;1.30;;
12861;SDS011;6499;66.348;14.134;2023-05-07T13:15:16;11.53;;;1.73;;
12861;SDS011;6499;66.348;14.134;2023-05-07T13:17:42;1.93;;;1.20;;
12861;SDS011;6499;66.348;14.134;2023-05-07T13:20:09;1.40;;;1.30;;
12861;SDS011;6499;66.348;14.134;2023-05-07T13:22:36;2.03;;;1.20;;
12861;SDS011;6499;66.348;14.134;2023-05-07T13:25:03;1.50;;;1.40;;
12861;SDS011;6499;66.348;14.134;2023-05-07T13:27:29;2.40;;;1.63;;
12861;SDS011;6499;66.348;14.134;2023-05-07T13:29:56;2.67;;;1.30;;
12861;SDS011;6499;66.348;14.134;2023-05-07T13:32:24;1.30;;;1.20;;
12861;SDS011;6499;66.348;14.134;2023-05-07T13:34:50;2.93;;;1.30;;
12861;SDS011;6499;66.348;14.134;2023-05-07T13:37:17;4.30;;;1.50;;
12861;SDS011;6499;66.348;14.134;2023-05-07T13:39:43;10.57;;;1.77;;
12861;SDS011;6499;66.348;14.134;2023-05-07T13:42:10;2.00;;;1.00;;
12861;SDS011;6499;66.348;14.134;2023-05-07T13:44:37;4.63;;;1.33;;
12861;SDS011;6499;66.348;14.134;2023-05-07T13:47:04;8.07;;;2.07;;
12861;SDS011;6499;66.348;14.134;2023-05-07T13:49:32;3.43;;;1.37;;
12861;SDS011;6499;66.348;14.134;2023-05-07T13:51:58;1.50;;;1.00;;
12861;SDS011;6499;66.348;14.134;2023-05-07T13:54:25;1.23;;;1.13;;
12861;SDS011;6499;66.348;14.134;2023-05-07T13:56:51;1.90;;;1.40;;
12861;SDS011;6499;66.348;14.134;2023-05-07T13:59:18;15.57;;;1.97;;
12861;SDS011;6499;66.348;14.134;2023-05-07T14:01:44;1.87;;;1.10;;
12861;SDS011;6499;66.348;14.134;2023-05-07T14:04:12;1.70;;;0.90;;
12861;SDS011;6499;66.348;14.134;2023-05-07T14:06:40;1.47;;;1.00;;
12861;SDS011;6499;66.348;14.134;2023-05-07T14:09:06;1.80;;;1.20;;
12861;SDS011;6499;66.348;14.134;2023-05-07T14:11:33;3.47;;;1.50;;
12861;SDS011;6499;66.348;14.134;2023-05-07T14:13:59;1.63;;;1.30;;
12861;SDS011;6499;66.348;14.134;2023-05-07T14:16:26;0.93;;;0.90;;
12861;SDS011;6499;66.348;14.134;2023-05-07T14:18:52;2.17;;;1.00;;
12861;SDS011;6499;66.348;14.134;2023-05-07T14:21:19;1.30;;;1.17;;
12861;SDS011;6499;66.348;14.134;2023-05-07T14:23:47;2.23;;;1.23;;
12861;SDS011;6499;66.348;14.134;2023-05-07T14:26:13;2.73;;;1.20;;
12861;SDS011;6499;66.348;14.134;2023-05-07T14:28:40;1.90;;;0.93;;
12861;SDS011;6499;66.348;14.134;2023-05-07T14:31:11;1.37;;;0.87;;
12861;SDS011;6499;66.348;14.134;2023-05-07T14:33:37;1.53;;;0.93;;
12861;SDS011;6499;66.348;14.134;2023-05-07T14:36:04;2.37;;;1.23;;
12861;SDS011;6499;66.348;14.134;2023-05-07T14:38:30;2.07;;;1.20;;
12861;SDS011;6499;66.348;14.134;2023-05-07T14:40:59;5.00;;;1.43;;
12861;SDS011;6499;66.348;14.134;2023-05-07T14:43:28;1.27;;;0.97;;
12861;SDS011;6499;66.348;14.134;2023-05-07T14:45:55;8.07;;;1.30;;
12861;SDS011;6499;66.348;14.134;2023-05-07T14:48:21;3.27;;;1.20;;
12861;SDS011;6499;66.348;14.134;2023-05-07T14:50:48;1.93;;;1.00;;
12861;SDS011;6499;66.348;14.134;2023-05-07T14:53:15;3.53;;;1.40;;
12861;SDS011;6499;66.348;14.134;2023-05-07T14:55:41;1.93;;;1.30;;
12861;SDS011;6499;66.348;14.134;2023-05-07T14:58:09;3.13;;;1.40;;
12861;SDS011;6499;66.348;14.134;2023-05-07T15:00:36;5.67;;;1.47;;